Time;durP1;ratioP1;P1;durP2;ratioP2;P2;SDS_P1;SDS_P2;PMS_P1;PMS_P2;Temp;Humidity;BMP_temperature;BMP_pressure;BME280_temperature;BME280_humidity;BME280_pressure;Samples;Min_cycle;Max_cycle;Signal;HPM_P1;HPM_P2
2024/01/27 00:00:59;;;;;;;25.60;2.17;;;5.70;99.90;;;;;;5108571;28;20051;-62
2024/01/27 00:03:26;;;;;;;16.63;2.63;;;5.70;99.90;;;;;;5099292;28;20040;-64
2024/01/27 00:05:54;;;;;;;14.45;2.03;;;5.70;99.90;;;;;;5086484;28;20059;-62
2024/01/27 00:08:22;;;;;;;19.58;2.67;;;5.70;99.90;;;;;;5093723;28;20530;-67
2024/01/27 00:10:50;;;;;;;11.25;1.85;;;5.70;99.90;;;;;;5108802;28;20043;-61
2024/01/27 00:13:17;;;;;;;22.58;2.17;;;5.70;99.90;;;;;;5100717;28;20523;-67
2024/01/27 00:15:45;;;;;;;17.60;2.03;;;5.70;99.90;;;;;;5089201;28;20526;-64
2024/01/27 00:18:13;;;;;;;18.67;3.13;;;5.70;99.90;;;;;;5088218;28;20118;-62
2024/01/27 00:20:40;;;;;;;14.90;2.45;;;5.60;99.90;;;;;;5089518;28;20047;-62
2024/01/27 00:23:08;;;;;;;16.48;1.92;;;5.70;99.90;;;;;;5085722;28;20040;-62
2024/01/27 00:25:36;;;;;;;21.88;2.35;;;5.60;99.90;;;;;;5084987;28;20044;-62
2024/01/27 00:28:03;;;;;;;16.73;2.42;;;5.70;99.90;;;;;;5088713;28;20044;-62
2024/01/27 00:30:31;;;;;;;18.13;2.08;;;5.60;99.90;;;;;;5089207;28;20040;-62
2024/01/27 00:32:59;;;;;;;20.35;2.83;;;5.60;99.90;;;;;;5089568;28;20048;-62
2024/01/27 00:35:27;;;;;;;8.95;1.48;;;5.60;99.90;;;;;;5088895;28;20070;-62
2024/01/27 00:37:54;;;;;;;14.75;2.08;;;5.50;99.90;;;;;;5089167;28;20048;-64
2024/01/27 00:40:22;;;;;;;14.32;2.20;;;5.50;99.90;;;;;;5108185;28;20044;-62
2024/01/27 00:42:50;;;;;;;9.55;2.03;;;5.50;99.90;;;;;;5106061;28;20423;-62
2024/01/27 00:45:18;;;;;;;23.38;3.25;;;5.50;99.90;;;;;;5087606;28;20498;-66
2024/01/27 00:47:46;;;;;;;11.88;1.75;;;5.50;99.90;;;;;;5089071;28;20055;-65
2024/01/27 00:50:14;;;;;;;14.55;1.65;;;5.50;99.90;;;;;;5088366;28;20036;-63
2024/01/27 00:52:41;;;;;;;15.82;2.03;;;5.40;99.90;;;;;;5086615;28;20056;-63
2024/01/27 00:55:09;;;;;;;12.50;2.08;;;5.40;99.90;;;;;;5088734;28;20047;-64
2024/01/27 00:57:38;;;;;;;9.75;1.33;;;5.40;99.90;;;;;;5088445;28;20040;-64
2024/01/27 01:00:09;;;;;;;16.40;2.17;;;5.40;99.90;;;;;;5108564;28;20047;-63
2024/01/27 01:02:37;;;;;;;20.92;2.67;;;5.40;99.90;;;;;;5103707;28;20051;-63
2024/01/27 01:05:05;;;;;;;9.27;1.60;;;5.40;99.90;;;;;;5085457;28;20056;-65
2024/01/27 01:07:33;;;;;;;11.57;1.98;;;5.40;99.90;;;;;;5085863;28;20059;-64
2024/01/27 01:10:01;;;;;;;18.80;3.33;;;5.40;99.90;;;;;;5087606;28;20502;-63
2024/01/27 01:12:30;;;;;;;10.73;1.88;;;5.40;99.90;;;;;;5088232;28;20047;-63
2024/01/27 01:14:58;;;;;;;18.00;2.58;;;5.30;99.90;;;;;;5087526;28;20518;-63
2024/01/27 01:17:25;;;;;;;18.55;3.75;;;5.30;99.90;;;;;;5107261;28;20059;-65
2024/01/27 01:19:54;;;;;;;17.17;2.33;;;5.30;99.90;;;;;;5108526;28;20070;-62
2024/01/27 01:22:22;;;;;;;14.85;1.85;;;5.30;99.90;;;;;;5103290;28;20043;-66
2024/01/27 01:24:49;;;;;;;21.30;2.08;;;5.30;99.90;;;;;;5086755;28;20048;-61
2024/01/27 01:27:18;;;;;;;20.20;2.03;;;5.30;99.90;;;;;;5084910;28;20051;-61
2024/01/27 01:29:46;;;;;;;21.10;2.72;;;5.40;99.90;;;;;;5104702;28;20040;-62
2024/01/27 01:32:15;;;;;;;14.77;3.38;;;5.30;99.90;;;;;;5108266;28;20044;-62
2024/01/27 01:34:42;;;;;;;17.50;2.60;;;5.40;99.90;;;;;;5087058;28;20052;-62
2024/01/27 01:37:10;;;;;;;12.18;1.60;;;5.40;99.90;;;;;;5088257;28;20051;-61
2024/01/27 01:39:38;;;;;;;11.65;2.30;;;5.40;99.90;;;;;;5072093;28;20063;-62
2024/01/27 01:42:06;;;;;;;8.18;1.95;;;5.40;99.90;;;;;;5067920;28;20044;-63
2024/01/27 01:44:33;;;;;;;13.80;2.13;;;5.40;99.90;;;;;;5085405;28;20055;-63
2024/01/27 01:47:01;;;;;;;15.25;1.90;;;5.40;99.90;;;;;;5105686;28;20395;-61
2024/01/27 01:49:29;;;;;;;23.35;2.67;;;5.40;99.90;;;;;;5093877;28;20044;-62
2024/01/27 01:51:57;;;;;;;20.00;2.10;;;5.40;99.90;;;;;;5086909;28;20032;-63
2024/01/27 01:54:27;;;;;;;21.95;2.33;;;5.40;99.90;;;;;;5086949;28;20044;-62
2024/01/27 01:56:57;;;;;;;14.05;2.10;;;5.40;99.90;;;;;;5087852;28;20067;-63
2024/01/27 01:59:25;;;;;;;17.65;1.92;;;5.40;99.90;;;;;;5087184;28;20051;-62
2024/01/27 02:01:53;;;;;;;16.92;3.53;;;5.40;99.90;;;;;;5087705;28;20044;-62
2024/01/27 02:04:20;;;;;;;13.18;1.80;;;5.40;99.90;;;;;;5087703;28;20415;-62
2024/01/27 02:06:48;;;;;;;14.15;1.80;;;5.40;99.90;;;;;;5086392;28;20044;-62
2024/01/27 02:09:16;;;;;;;20.25;2.30;;;5.40;99.90;;;;;;5077000;28;20044;-64
2024/01/27 02:11:44;;;;;;;22.63;1.88;;;5.40;99.90;;;;;;5066834;28;20507;-62
2024/01/27 02:14:12;;;;;;;23.33;2.45;;;5.50;99.90;;;;;;5081339;28;20400;-62
2024/01/27 02:16:40;;;;;;;14.00;2.17;;;5.50;99.90;;;;;;5081009;28;20060;-62
2024/01/27 02:19:08;;;;;;;16.10;1.45;;;5.50;99.90;;;;;;5089713;28;20055;-62
2024/01/27 02:21:35;;;;;;;9.75;1.75;;;5.50;99.90;;;;;;5108336;28;20047;-62
2024/01/27 02:24:07;;;;;;;11.80;1.95;;;5.50;99.90;;;;;;5079033;28;20045;-61
2024/01/27 02:26:34;;;;;;;11.18;1.63;;;5.50;99.90;;;;;;5067925;28;20053;-62
2024/01/27 02:29:02;;;;;;;13.43;1.77;;;5.50;99.90;;;;;;5077748;28;20044;-62
2024/01/27 02:31:30;;;;;;;16.30;1.95;;;5.50;99.90;;;;;;5076390;28;20040;-62
2024/01/27 02:33:58;;;;;;;27.17;2.70;;;5.50;99.90;;;;;;5071928;28;20518;-64
2024/01/27 02:36:26;;;;;;;17.48;2.08;;;5.50;99.90;;;;;;5068707;28;20457;-62
2024/01/27 02:38:53;;;;;;;14.43;2.00;;;5.50;99.90;;;;;;5088182;28;20411;-62
2024/01/27 02:41:21;;;;;;;12.93;1.88;;;5.50;99.90;;;;;;5090844;28;20051;-62
2024/01/27 02:43:49;;;;;;;18.05;2.30;;;5.60;99.90;;;;;;5090720;28;20369;-62
2024/01/27 02:46:17;;;;;;;10.63;1.70;;;5.50;99.90;;;;;;5089470;28;20373;-62
2024/01/27 02:48:45;;;;;;;19.23;2.30;;;5.60;99.90;;;;;;5089540;28;20044;-62
2024/01/27 02:51:18;;;;;;;22.55;2.45;;;5.50;99.90;;;;;;5093406;28;20039;-62
2024/01/27 02:53:46;;;;;;;20.55;2.05;;;5.50;99.90;;;;;;5092342;28;20040;-61
2024/01/27 02:56:16;;;;;;;15.15;1.65;;;5.60;99.90;;;;;;5092163;28;20040;-63
2024/01/27 02:58:44;;;;;;;10.38;1.60;;;5.60;99.90;;;;;;5093947;28;20040;-65
2024/01/27 03:01:11;;;;;;;16.73;2.40;;;5.60;99.90;;;;;;5089893;28;20052;-62
2024/01/27 03:03:39;;;;;;;14.75;1.85;;;5.60;99.90;;;;;;5075642;28;20065;-63
2024/01/27 03:06:07;;;;;;;14.48;2.15;;;5.60;99.90;;;;;;5094003;28;20044;-61
2024/01/27 03:08:35;;;;;;;9.77;1.90;;;5.60;99.90;;;;;;5094349;28;20044;-62
2024/01/27 03:11:03;;;;;;;16.42;2.20;;;5.60;99.90;;;;;;5093949;28;20079;-61
2024/01/27 03:13:30;;;;;;;17.08;2.00;;;5.60;99.90;;;;;;5090747;28;20048;-61
2024/01/27 03:15:58;;;;;;;14.43;1.63;;;5.60;99.90;;;;;;5102881;28;20043;-62
2024/01/27 03:18:26;;;;;;;23.65;3.83;;;5.60;99.90;;;;;;5114261;28;20062;-61
2024/01/27 03:20:54;;;;;;;12.30;2.53;;;5.60;99.90;;;;;;5114322;28;20048;-63
2024/01/27 03:23:21;;;;;;;19.60;1.70;;;5.60;99.90;;;;;;5092908;28;20158;-62
2024/01/27 03:25:49;;;;;;;16.35;3.10;;;5.60;99.90;;;;;;5093930;28;20395;-62
2024/01/27 03:28:17;;;;;;;8.95;1.15;;;5.60;99.90;;;;;;5093980;28;20044;-61
2024/01/27 03:30:44;;;;;;;15.48;2.00;;;5.60;99.90;;;;;;5093559;28;20047;-63
2024/01/27 03:33:12;;;;;;;16.60;2.40;;;5.60;99.90;;;;;;5093676;28;20376;-62
2024/01/27 03:35:40;;;;;;;10.40;2.35;;;5.60;99.90;;;;;;5093698;28;20044;-62
2024/01/27 03:38:08;;;;;;;12.38;1.75;;;5.60;99.90;;;;;;5090347;28;20051;-63
2024/01/27 03:40:36;;;;;;;12.32;2.08;;;5.50;99.90;;;;;;5093497;28;20384;-63
2024/01/27 03:43:04;;;;;;;27.15;2.78;;;5.50;99.90;;;;;;5093788;28;20036;-63
2024/01/27 03:45:32;;;;;;;16.55;3.00;;;5.50;99.90;;;;;;5098223;28;20510;-61
2024/01/27 03:47:59;;;;;;;12.20;1.63;;;5.40;99.90;;;;;;5114083;28;20056;-62
2024/01/27 03:50:27;;;;;;;19.77;2.50;;;5.40;99.90;;;;;;5114054;28;20054;-62
2024/01/27 03:52:55;;;;;;;12.13;1.85;;;5.30;99.90;;;;;;5103665;28;20055;-64
2024/01/27 03:55:22;;;;;;;11.77;1.75;;;5.20;99.90;;;;;;5093407;28;20039;-63
2024/01/27 03:57:50;;;;;;;11.15;1.35;;;5.20;99.90;;;;;;5093548;28;20047;-63
2024/01/27 04:00:18;;;;;;;10.88;1.20;;;5.20;99.90;;;;;;5091775;28;20063;-62
2024/01/27 04:02:45;;;;;;;20.25;2.47;;;5.10;99.90;;;;;;5092332;28;20055;-63
2024/01/27 04:05:13;;;;;;;10.38;1.50;;;5.10;99.90;;;;;;5091286;28;20063;-62
2024/01/27 04:07:41;;;;;;;10.50;2.15;;;5.10;99.90;;;;;;5093259;28;20048;-63
2024/01/27 04:10:09;;;;;;;8.52;1.63;;;5.10;99.90;;;;;;5092990;28;20530;-62
2024/01/27 04:12:36;;;;;;;12.68;2.25;;;5.10;99.90;;;;;;5093072;28;20047;-62
2024/01/27 04:15:04;;;;;;;10.90;1.83;;;5.10;99.90;;;;;;5092934;28;20059;-62
2024/01/27 04:17:32;;;;;;;17.63;1.95;;;5.10;99.90;;;;;;5113301;28;20055;-64
2024/01/27 04:20:00;;;;;;;18.08;1.80;;;5.10;99.90;;;;;;5113329;28;20487;-63
2024/01/27 04:22:28;;;;;;;11.70;2.42;;;5.10;99.90;;;;;;5103070;28;20492;-63
2024/01/27 04:24:55;;;;;;;12.68;2.42;;;5.10;99.90;;;;;;5085155;28;20056;-62
2024/01/27 04:27:23;;;;;;;16.13;2.58;;;5.10;99.90;;;;;;5091751;28;20364;-62
2024/01/27 04:29:51;;;;;;;26.42;2.10;;;5.10;99.90;;;;;;5092718;28;20044;-61
2024/01/27 04:32:18;;;;;;;7.97;1.73;;;5.10;99.90;;;;;;5092021;28;20047;-62
2024/01/27 04:34:46;;;;;;;17.27;2.05;;;5.10;99.90;;;;;;5091212;28;20052;-62
2024/01/27 04:37:14;;;;;;;17.38;1.48;;;5.00;99.90;;;;;;5091294;28;20052;-62
2024/01/27 04:39:42;;;;;;;8.95;1.38;;;5.10;99.90;;;;;;5091350;28;20495;-62
2024/01/27 04:42:09;;;;;;;16.20;2.10;;;5.00;99.90;;;;;;5092415;28;20043;-61
2024/01/27 04:44:41;;;;;;;11.18;3.38;;;5.00;99.90;;;;;;5092090;28;20059;-63
2024/01/27 04:47:09;;;;;;;16.05;2.20;;;5.00;99.90;;;;;;5110935;28;20047;-64
2024/01/27 04:49:36;;;;;;;17.17;2.40;;;5.00;99.90;;;;;;5112838;28;20043;-62
2024/01/27 04:52:04;;;;;;;26.15;2.65;;;5.00;99.90;;;;;;5110292;28;20047;-62
2024/01/27 04:54:32;;;;;;;15.90;1.58;;;5.00;99.90;;;;;;5086437;28;20063;-62
2024/01/27 04:56:59;;;;;;;15.75;2.00;;;5.00;99.90;;;;;;5072164;28;20065;-62
2024/01/27 04:59:27;;;;;;;14.63;2.42;;;5.10;99.90;;;;;;5087111;28;20040;-63
2024/01/27 05:01:55;;;;;;;18.02;2.17;;;5.10;99.90;;;;;;5091969;28;20047;-62
2024/01/27 05:04:26;;;;;;;16.27;2.80;;;5.10;99.90;;;;;;5090953;28;20063;-62
2024/01/27 05:06:54;;;;;;;14.73;2.28;;;5.10;99.90;;;;;;5092256;28;20048;-63
2024/01/27 05:09:21;;;;;;;14.98;2.13;;;5.10;99.90;;;;;;5091803;28;20044;-63
2024/01/27 05:11:51;;;;;;;15.25;1.92;;;5.10;99.90;;;;;;5073819;28;20060;-62
2024/01/27 05:14:19;;;;;;;13.70;2.15;;;5.10;99.90;;;;;;5092065;28;20067;-62
2024/01/27 05:16:47;;;;;;;11.38;1.38;;;5.10;99.90;;;;;;5107322;28;20043;-62
2024/01/27 05:19:16;;;;;;;18.27;2.10;;;5.10;99.90;;;;;;5112140;28;20066;-62
2024/01/27 05:21:44;;;;;;;15.77;1.92;;;5.10;99.90;;;;;;5112019;28;20065;-62
2024/01/27 05:24:12;;;;;;;20.50;2.20;;;5.10;99.90;;;;;;5080374;28;20044;-62
2024/01/27 05:26:40;;;;;;;10.95;1.88;;;5.10;99.90;;;;;;5091771;28;20175;-62
2024/01/27 05:29:08;;;;;;;18.35;1.85;;;5.10;99.90;;;;;;5090134;28;20528;-62
2024/01/27 05:31:36;;;;;;;14.57;2.13;;;5.10;99.90;;;;;;5091722;28;20048;-61
2024/01/27 05:34:04;;;;;;;13.77;2.15;;;5.20;99.90;;;;;;5091712;28;20054;-61
2024/01/27 05:36:32;;;;;;;14.60;1.80;;;5.20;99.90;;;;;;5091661;28;20048;-62
2024/01/27 05:39:00;;;;;;;16.38;3.25;;;5.20;99.90;;;;;;5091429;28;20506;-62
2024/01/27 05:41:31;;;;;;;15.02;2.30;;;5.20;99.90;;;;;;5091728;28;20384;-62
2024/01/27 05:43:58;;;;;;;22.67;2.28;;;5.20;99.90;;;;;;5090315;28;20047;-62
2024/01/27 05:46:26;;;;;;;12.43;2.05;;;5.20;99.90;;;;;;5088492;28;20071;-62
2024/01/27 05:48:57;;;;;;;15.52;3.25;;;5.30;99.90;;;;;;5067265;28;20041;-62
2024/01/27 05:51:25;;;;;;;13.18;2.45;;;5.30;99.90;;;;;;5067655;28;20052;-62
2024/01/27 05:53:53;;;;;;;12.85;2.78;;;5.30;99.90;;;;;;5083573;28;20040;-63
2024/01/27 05:56:21;;;;;;;14.95;2.20;;;5.30;99.90;;;;;;5088189;28;20055;-62
2024/01/27 05:58:49;;;;;;;13.55;3.25;;;5.30;99.90;;;;;;5088086;28;20044;-64
2024/01/27 06:01:20;;;;;;;17.02;2.22;;;5.30;99.90;;;;;;5082692;28;20047;-61
2024/01/27 06:03:47;;;;;;;12.52;1.80;;;5.30;99.90;;;;;;5063455;28;20053;-61
2024/01/27 06:06:15;;;;;;;20.05;3.22;;;5.30;99.90;;;;;;5081254;28;20045;-63
2024/01/27 06:08:43;;;;;;;12.45;2.13;;;5.30;99.90;;;;;;5084646;28;20817;-62
2024/01/27 06:11:11;;;;;;;23.02;3.30;;;5.30;99.90;;;;;;5084766;28;20056;-62
2024/01/27 06:13:40;;;;;;;19.67;2.80;;;5.30;99.90;;;;;;5084614;28;20055;-63
2024/01/27 06:16:09;;;;;;;18.17;2.55;;;5.40;99.90;;;;;;5094915;28;20058;-62
2024/01/27 06:18:37;;;;;;;18.50;2.22;;;5.40;99.90;;;;;;5079378;28;20404;-63
2024/01/27 06:21:05;;;;;;;10.70;2.17;;;5.40;99.90;;;;;;5064573;28;20055;-62
2024/01/27 06:23:34;;;;;;;16.15;2.53;;;5.40;99.90;;;;;;5085310;28;20403;-62
2024/01/27 06:26:08;;;;;;;15.43;2.25;;;5.40;99.90;;;;;;5085839;28;20052;-61
2024/01/27 06:28:36;;;;;;;12.57;2.45;;;5.40;99.90;;;;;;5087072;28;20403;-62
2024/01/27 06:31:04;;;;;;;14.85;2.42;;;5.40;99.90;;;;;;5069449;28;20400;-61
2024/01/27 06:33:32;;;;;;;13.02;2.03;;;5.40;99.90;;;;;;5082481;28;20387;-69
2024/01/27 06:36:00;;;;;;;10.98;1.98;;;5.40;99.90;;;;;;5090124;28;20048;-65
2024/01/27 06:38:28;;;;;;;11.70;1.90;;;5.40;99.90;;;;;;5091543;28;20063;-64
2024/01/27 06:40:55;;;;;;;12.50;2.38;;;5.40;99.90;;;;;;5091468;28;20044;-62
2024/01/27 06:43:23;;;;;;;19.00;2.63;;;5.40;99.90;;;;;;5091734;28;20478;-65
2024/01/27 06:45:51;;;;;;;10.93;2.28;;;5.50;99.90;;;;;;5099171;28;20062;-62
2024/01/27 06:48:19;;;;;;;11.98;2.65;;;5.50;99.90;;;;;;5093819;28;20036;-63
2024/01/27 06:50:47;;;;;;;16.17;1.80;;;5.50;99.90;;;;;;5082334;28;20044;-65
2024/01/27 06:53:14;;;;;;;18.90;2.50;;;5.50;99.90;;;;;;5096834;28;20039;-62
2024/01/27 06:55:42;;;;;;;13.65;2.00;;;5.50;99.90;;;;;;5094795;28;20040;-63
2024/01/27 06:58:10;;;;;;;11.57;2.00;;;5.50;99.90;;;;;;5090131;28;20044;-62
2024/01/27 07:00:38;;;;;;;12.68;1.88;;;5.50;99.90;;;;;;5090082;28;20050;-63
2024/01/27 07:03:06;;;;;;;14.65;2.45;;;5.50;99.90;;;;;;5085875;28;20055;-61
2024/01/27 07:05:40;;;;;;;15.88;2.28;;;5.50;99.90;;;;;;5087435;28;20032;-62
2024/01/27 07:08:09;;;;;;;11.32;2.15;;;5.50;99.90;;;;;;5090556;28;20055;-62
2024/01/27 07:10:36;;;;;;;14.05;1.88;;;5.50;99.90;;;;;;5091225;28;20098;-61
2024/01/27 07:13:06;;;;;;;16.52;2.10;;;5.50;99.90;;;;;;5090673;28;20089;-63
2024/01/27 07:15:34;;;;;;;15.68;1.80;;;5.50;99.90;;;;;;5095280;28;20821;-64
2024/01/27 07:18:02;;;;;;;15.95;2.15;;;5.50;99.90;;;;;;5096412;28;20052;-62
2024/01/27 07:20:30;;;;;;;21.25;2.53;;;5.50;99.90;;;;;;5067735;28;20040;-63
2024/01/27 07:22:57;;;;;;;16.52;1.85;;;5.60;99.90;;;;;;5088427;28;20070;-63
2024/01/27 07:25:25;;;;;;;14.18;2.05;;;5.50;99.90;;;;;;5090705;28;20052;-62
2024/01/27 07:27:55;;;;;;;13.90;3.22;;;5.50;99.90;;;;;;5090650;28;20583;-63
2024/01/27 07:30:23;;;;;;;13.63;2.70;;;5.60;99.90;;;;;;5090156;28;20387;-61
2024/01/27 07:32:51;;;;;;;10.00;2.55;;;5.60;99.90;;;;;;5089563;28;20110;-64
2024/01/27 07:35:19;;;;;;;15.95;1.95;;;5.60;99.90;;;;;;5083001;28;20047;-62
2024/01/27 07:37:46;;;;;;;18.33;1.92;;;5.50;99.90;;;;;;5089141;28;20044;-63
2024/01/27 07:40:14;;;;;;;14.43;1.95;;;5.60;99.90;;;;;;5074309;28;20045;-68
2024/01/27 07:42:43;;;;;;;8.43;2.13;;;5.50;99.90;;;;;;5071220;28;20052;-64
2024/01/27 07:45:11;;;;;;;15.05;1.95;;;5.50;99.90;;;;;;5092826;28;20055;-62
2024/01/27 07:47:39;;;;;;;13.40;2.22;;;5.50;99.90;;;;;;5102675;28;20431;-64
2024/01/27 07:50:09;;;;;;;14.10;2.45;;;5.50;99.90;;;;;;5081719;28;20049;-62
2024/01/27 07:52:37;;;;;;;11.60;1.73;;;5.50;99.90;;;;;;5069166;28;20044;-62
2024/01/27 07:55:04;;;;;;;9.52;2.00;;;5.50;99.90;;;;;;5089938;28;20047;-62
2024/01/27 07:57:32;;;;;;;22.45;2.78;;;5.50;99.90;;;;;;5089672;28;20060;-63
2024/01/27 08:00:00;;;;;;;11.38;2.55;;;5.50;99.90;;;;;;5083453;28;20036;-63
2024/01/27 08:02:31;;;;;;;14.27;1.80;;;5.50;99.90;;;;;;5066777;28;20040;-62
2024/01/27 08:04:58;;;;;;;9.25;1.67;;;5.50;99.90;;;;;;5079206;28;20048;-62
2024/01/27 08:07:26;;;;;;;20.08;2.25;;;5.50;99.90;;;;;;5089569;28;20047;-63
2024/01/27 08:09:54;;;;;;;10.68;2.28;;;5.50;99.90;;;;;;5110491;28;20435;-65
2024/01/27 08:12:21;;;;;;;12.23;2.05;;;5.50;99.90;;;;;;5109889;28;20056;-62
2024/01/27 08:14:49;;;;;;;15.88;2.15;;;5.50;99.90;;;;;;5089489;28;20043;-63
2024/01/27 08:17:17;;;;;;;12.02;2.20;;;5.50;99.90;;;;;;5091115;28;20040;-62
2024/01/27 08:19:44;;;;;;;17.25;2.10;;;5.40;99.90;;;;;;5072889;28;20052;-64
2024/01/27 08:22:12;;;;;;;9.60;1.50;;;5.50;99.90;;;;;;5068497;28;20500;-64
2024/01/27 08:24:40;;;;;;;9.43;2.25;;;5.60;99.90;;;;;;5087700;28;20040;-65
2024/01/27 08:27:08;;;;;;;15.13;2.88;;;5.50;99.90;;;;;;5089383;28;20051;-65
2024/01/27 08:29:36;;;;;;;14.05;2.00;;;5.50;99.90;;;;;;5084085;28;20045;-64
2024/01/27 08:32:04;;;;;;;12.63;1.75;;;5.50;99.90;;;;;;5085120;28;20047;-65
2024/01/27 08:34:31;;;;;;;13.50;1.83;;;5.50;99.90;;;;;;5089885;28;20047;-67
2024/01/27 08:37:01;;;;;;;14.52;3.38;;;5.50;99.90;;;;;;5080927;28;20036;-62
2024/01/27 08:39:30;;;;;;;;;;;5.50;99.90;;;;;;5089342;28;20422;-65
2024/01/27 08:41:58;;;;;;;10.48;2.03;;;5.60;99.90;;;;;;5089184;28;19919;-62
2024/01/27 08:44:25;;;;;;;17.55;3.47;;;5.50;99.90;;;;;;5088594;28;20028;-62
2024/01/27 08:46:53;;;;;;;10.68;1.58;;;5.50;99.90;;;;;;5089115;28;20055;-64
2024/01/27 08:49:22;;;;;;;16.73;2.22;;;5.50;99.90;;;;;;5075735;28;20063;-62
2024/01/27 08:51:50;;;;;;;13.57;3.15;;;5.50;99.90;;;;;;5069080;28;20051;-62
2024/01/27 08:54:17;;;;;;;13.63;1.92;;;5.50;99.90;;;;;;5082632;28;20042;-62
2024/01/27 08:56:45;;;;;;;14.10;2.58;;;5.50;99.90;;;;;;5088851;28;20059;-62
2024/01/27 08:59:13;;;;;;;8.00;1.80;;;5.50;99.90;;;;;;5090789;28;20059;-62
2024/01/27 09:01:42;;;;;;;17.40;1.85;;;5.50;99.90;;;;;;5089055;28;20051;-62
2024/01/27 09:04:09;;;;;;;12.07;2.13;;;5.50;99.90;;;;;;5087341;28;20048;-62
2024/01/27 09:06:37;;;;;;;13.80;1.85;;;5.50;99.90;;;;;;5071752;28;20044;-62
2024/01/27 09:09:05;;;;;;;16.38;1.80;;;5.50;99.90;;;;;;5084653;28;20048;-62
2024/01/27 09:11:34;;;;;;;12.77;1.98;;;5.60;99.90;;;;;;5088492;28;20074;-64
2024/01/27 09:14:02;;;;;;;10.40;1.80;;;5.60;99.90;;;;;;5088375;28;20059;-63
2024/01/27 09:16:31;;;;;;;19.65;2.67;;;5.60;99.90;;;;;;5088550;28;20055;-61
2024/01/27 09:19:00;;;;;;;11.00;1.63;;;5.60;99.90;;;;;;5085847;28;20044;-62
2024/01/27 09:21:30;;;;;;;16.70;2.60;;;5.60;99.90;;;;;;5068955;28;20228;-64
2024/01/27 09:23:58;;;;;;;14.55;2.25;;;5.60;99.90;;;;;;5080369;28;20421;-65
2024/01/27 09:26:26;;;;;;;11.73;2.72;;;5.60;99.90;;;;;;5072466;28;20467;-71
2024/01/27 09:28:54;;;;;;;13.43;2.35;;;5.60;99.90;;;;;;5088456;28;20052;-72
2024/01/27 09:31:23;;;;;;;24.42;2.60;;;5.60;99.90;;;;;;5052407;28;20055;-74
2024/01/27 09:33:53;;;;;;;13.82;2.15;;;5.60;99.90;;;;;;5077852;28;20055;-74
2024/01/27 09:36:22;;;;;;;12.10;1.90;;;5.60;99.90;;;;;;5088263;28;20044;-74
2024/01/27 09:38:50;;;;;;;14.15;1.83;;;5.60;99.90;;;;;;5084763;28;20044;-73
2024/01/27 09:41:18;;;;;;;14.23;2.42;;;5.70;99.90;;;;;;5068427;28;20059;-73
2024/01/27 09:43:47;;;;;;;16.27;1.90;;;5.70;99.90;;;;;;5076271;28;20047;-64
2024/01/27 09:46:16;;;;;;;15.52;3.08;;;5.70;99.90;;;;;;5083148;28;20052;-73
2024/01/27 09:48:44;;;;;;;16.88;2.03;;;5.70;99.90;;;;;;5088183;28;20048;-70
2024/01/27 09:51:12;;;;;;;20.60;3.33;;;5.70;99.90;;;;;;5086883;28;20059;-72
2024/01/27 09:53:40;;;;;;;12.18;2.17;;;5.80;99.90;;;;;;5096332;28;20054;-72
2024/01/27 09:56:09;;;;;;;27.35;3.63;;;5.80;99.90;;;;;;5086049;28;20052;-72
2024/01/27 09:58:37;;;;;;;13.98;2.13;;;5.80;99.90;;;;;;5080810;28;20051;-70
2024/01/27 10:01:08;;;;;;;8.65;1.75;;;5.90;99.90;;;;;;5088889;28;20638;-72
2024/01/27 10:03:37;;;;;;;10.38;1.67;;;5.90;99.90;;;;;;5087541;28;20048;-73
2024/01/27 10:06:09;;;;;;;7.10;1.40;;;5.90;99.90;;;;;;5088225;28;20044;-64
2024/01/27 10:08:37;;;;;;;12.98;1.75;;;6.00;99.90;;;;;;5092255;28;20071;-63
2024/01/27 10:11:08;;;;;;;7.93;1.90;;;6.00;99.90;;;;;;5092141;28;20051;-63
2024/01/27 10:13:36;;;;;;;10.73;1.50;;;6.00;99.90;;;;;;5090058;28;20059;-63
2024/01/27 10:16:12;;;;;;;11.50;1.75;;;6.00;99.90;;;;;;5089436;28;20410;-63
2024/01/27 10:18:39;;;;;;;15.55;1.75;;;6.00;99.90;;;;;;5091561;28;20048;-64
2024/01/27 10:21:18;;;;;;;6.00;1.58;;;6.10;99.90;;;;;;5090338;28;20062;-63
2024/01/27 10:23:46;;;;;;;9.02;1.60;;;6.10;99.90;;;;;;5099296;28;20062;-69
2024/01/27 10:26:14;;;;;;;29.48;2.50;;;6.20;99.90;;;;;;5090428;28;20040;-64
2024/01/27 10:28:42;;;;;;;16.25;2.03;;;6.20;99.90;;;;;;5086570;28;20063;-64
2024/01/27 10:31:12;;;;;;;12.90;2.33;;;6.20;99.90;;;;;;5075025;28;20056;-66
2024/01/27 10:33:51;;;;;;;18.60;3.08;;;6.30;99.90;;;;;;5082250;28;20048;-63
2024/01/27 10:36:19;;;;;;;10.93;1.70;;;6.30;99.90;;;;;;5073296;28;20049;-64
2024/01/27 10:38:47;;;;;;;17.13;1.88;;;6.30;99.90;;;;;;5084797;28;20059;-63
2024/01/27 10:41:25;;;;;;;13.18;2.33;;;6.40;99.90;;;;;;5091384;28;20040;-64
2024/01/27 10:43:54;;;;;;;8.55;1.77;;;6.40;99.90;;;;;;5091378;28;20126;-63
2024/01/27 10:46:23;;;;;;;7.03;1.63;;;6.40;99.90;;;;;;5091137;28;20055;-63
2024/01/27 10:48:54;;;;;;;17.00;3.05;;;6.40;99.90;;;;;;5090847;28;20048;-64
2024/01/27 10:51:33;;;;;;;16.40;1.85;;;6.50;99.90;;;;;;5088072;28;20055;-61
2024/01/27 10:54:03;;;;;;;12.52;1.40;;;6.60;99.90;;;;;;5090126;28;20411;-64
2024/01/27 10:56:32;;;;;;;11.07;1.65;;;6.60;99.90;;;;;;5091332;28;20403;-66
2024/01/27 10:59:01;;;;;;;8.20;1.40;;;6.60;99.90;;;;;;5092517;28;20044;-65
2024/01/27 11:01:31;;;;;;;14.10;2.50;;;6.70;99.90;;;;;;5089134;28;20040;-64
2024/01/27 11:04:03;;;;;;;13.55;2.33;;;6.70;99.90;;;;;;5088170;28;20423;-64
2024/01/27 11:06:32;;;;;;;13.50;1.83;;;6.80;99.90;;;;;;5072627;28;20047;-65
2024/01/27 11:09:03;;;;;;;11.10;1.55;;;6.80;99.90;;;;;;5085678;28;20051;-64
2024/01/27 11:11:31;;;;;;;12.60;1.88;;;6.90;99.90;;;;;;5090615;28;20044;-68
2024/01/27 11:13:59;;;;;;;13.32;2.50;;;7.00;99.90;;;;;;5089342;28;20044;-63
2024/01/27 11:16:28;;;;;;;15.95;1.55;;;7.00;99.90;;;;;;5090755;28;20040;-64
2024/01/27 11:18:56;;;;;;;14.27;1.48;;;7.10;99.90;;;;;;5089390;28;20392;-64
2024/01/27 11:21:27;;;;;;;16.60;2.33;;;7.20;99.90;;;;;;5084931;28;20044;-63
2024/01/27 11:23:55;;;;;;;12.90;1.60;;;7.20;99.90;;;;;;5099328;28;20047;-64
2024/01/27 11:26:25;;;;;;;15.48;3.03;;;7.20;99.90;;;;;;5089971;28;20051;-64
2024/01/27 11:28:53;;;;;;;9.68;1.00;;;7.30;99.90;;;;;;5090948;28;20044;-63
2024/01/27 11:31:21;;;;;;;10.15;1.60;;;7.30;99.90;;;;;;5090550;28;20353;-62
2024/01/27 11:33:52;;;;;;;11.50;2.35;;;7.40;99.90;;;;;;5097131;28;20051;-64
2024/01/27 11:36:22;;;;;;;9.15;1.40;;;7.40;99.90;;;;;;5079522;28;20051;-63
2024/01/27 11:38:51;;;;;;;13.75;2.28;;;7.40;99.90;;;;;;5080736;28;20044;-64
2024/01/27 11:41:27;;;;;;;13.50;2.00;;;7.40;99.90;;;;;;5090636;28;20127;-63
2024/01/27 11:43:56;;;;;;;11.38;1.40;;;7.40;99.90;;;;;;5089951;28;20044;-64
2024/01/27 11:46:25;;;;;;;11.23;1.65;;;7.40;99.90;;;;;;5090095;28;20039;-64
2024/01/27 11:48:53;;;;;;;7.60;1.43;;;7.50;99.90;;;;;;5089811;28;20048;-65
2024/01/27 11:51:23;;;;;;;10.73;2.50;;;7.50;99.90;;;;;;5078666;28;20305;-62
2024/01/27 11:53:51;;;;;;;;;;;7.50;99.90;;;;;;5079611;28;20054;-62
2024/01/27 11:56:18;;;;;;;9.05;1.20;;;7.50;99.90;;;;;;5089686;28;20390;-63
2024/01/27 11:58:48;;;;;;;6.53;1.70;;;7.50;99.90;;;;;;5091451;28;20044;-62
2024/01/27 12:01:16;;;;;;;8.63;1.58;;;7.40;99.90;;;;;;5090097;28;20055;-65
2024/01/27 12:03:46;;;;;;;13.48;1.83;;;7.30;99.90;;;;;;5098013;28;20062;-62
2024/01/27 12:06:14;;;;;;;12.38;1.55;;;7.30;99.90;;;;;;5087876;28;20416;-73
2024/01/27 12:08:52;;;;;;;14.80;1.70;;;7.30;99.90;;;;;;5077686;28;20043;-73
2024/01/27 12:11:19;;;;;;;11.55;1.75;;;7.30;99.90;;;;;;5089817;28;20043;-72
2024/01/27 12:13:53;;;;;;;11.65;2.58;;;7.30;99.90;;;;;;5088791;28;20055;-73
2024/01/27 12:16:22;;;;;;;8.73;2.25;;;7.30;99.90;;;;;;5089411;28;20048;-71
2024/01/27 12:18:56;;;;;;;7.07;1.50;;;7.30;99.90;;;;;;5089689;28;20043;-73
2024/01/27 12:21:24;;;;;;;16.23;2.15;;;7.40;99.90;;;;;;5079698;28;20407;-73
2024/01/27 12:23:56;;;;;;;12.05;1.75;;;7.40;99.90;;;;;;5087242;28;20044;-73
2024/01/27 12:26:29;;;;;;;16.20;1.45;;;7.50;99.90;;;;;;5090511;28;20396;-74
2024/01/27 12:28:57;;;;;;;14.38;1.73;;;7.40;99.90;;;;;;5088895;28;20047;-72
2024/01/27 12:31:26;;;;;;;14.73;2.65;;;7.50;99.90;;;;;;5082886;28;20040;-69
2024/01/27 12:33:56;;;;;;;15.65;2.38;;;7.50;99.90;;;;;;5072016;28;20048;-72
2024/01/27 12:36:24;;;;;;;17.67;1.88;;;7.50;99.90;;;;;;5077052;28;20059;-72
2024/01/27 12:39:03;;;;;;;12.35;1.50;;;7.60;99.90;;;;;;5096715;28;20051;-73
2024/01/27 12:41:33;;;;;;;15.65;1.98;;;7.60;99.90;;;;;;5109751;28;20051;-69
2024/01/27 12:44:02;;;;;;;13.52;2.15;;;7.60;99.90;;;;;;5098680;28;20051;-73
2024/01/27 12:46:31;;;;;;;9.70;2.05;;;7.60;99.90;;;;;;5088973;28;20474;-73
2024/01/27 12:48:58;;;;;;;6.22;1.48;;;7.70;99.90;;;;;;5089059;28;20601;-66
2024/01/27 12:51:26;;;;;;;11.25;2.10;;;7.80;99.90;;;;;;5080851;28;20061;-73
2024/01/27 12:53:54;;;;;;;9.88;1.40;;;7.80;99.90;;;;;;5077675;28;20040;-67